createdAt,value
2022-09-05T00:00:11.944Z,102074.00
2022-09-05T00:03:23.267Z,102077.00
2022-09-05T00:06:05.615Z,102063.00
2022-09-05T00:08:51.074Z,102070.00
2022-09-05T00:11:40.837Z,102076.00
2022-09-05T00:15:15.214Z,102087.00
2022-09-05T00:17:43.761Z,102081.00
2022-09-05T00:24:19.987Z,102093.00
2022-09-05T00:24:28.310Z,102087.00
2022-09-05T00:26:17.222Z,102085.00
2022-09-05T00:28:47.930Z,102089.00
2022-09-05T00:31:55.941Z,102095.00
2022-09-05T00:34:56.309Z,102090.00
2022-09-05T00:37:33.186Z,102090.00
2022-09-05T00:40:17.422Z,102098.00
2022-09-05T00:42:53.228Z,102093.00
2022-09-05T00:45:27.578Z,102095.00
2022-09-05T00:48:00.154Z,102094.00
2022-09-05T00:50:39.007Z,102098.00
2022-09-05T00:53:13.161Z,102106.00
2022-09-05T00:56:13.652Z,102098.00
2022-09-05T00:58:58.364Z,102097.00
2022-09-05T01:01:40.277Z,102102.00
2022-09-05T01:04:23.205Z,102101.00
2022-09-05T01:07:21.541Z,102109.00
2022-09-05T01:09:56.876Z,102098.00
2022-09-05T01:12:53.087Z,102097.00
2022-09-05T01:15:46.261Z,102090.00
2022-09-05T01:18:21.857Z,102087.00
2022-09-05T01:21:09.799Z,102090.00
2022-09-05T01:23:39.572Z,102104.00
2022-09-05T01:26:06.327Z,102093.00
2022-09-05T01:29:15.862Z,102086.00
2022-09-05T01:31:57.077Z,102080.00
2022-09-05T01:34:34.672Z,102077.00
2022-09-05T01:37:32.898Z,102072.00
2022-09-05T01:40:19.748Z,102076.00
2022-09-05T01:42:57.228Z,102077.00
2022-09-05T01:45:49.775Z,102068.00
2022-09-05T01:48:30.308Z,102065.00
2022-09-05T01:51:03.456Z,102064.00
2022-09-05T01:53:46.376Z,102064.00
2022-09-05T01:56:35.234Z,102060.00
2022-09-05T01:59:14.359Z,102064.00
2022-09-05T02:01:47.262Z,102063.00
2022-09-05T02:04:52.621Z,102055.00
2022-09-05T02:07:37.629Z,102055.00
2022-09-05T02:10:10.469Z,102058.00
2022-09-05T02:12:42.698Z,102056.00
2022-09-05T02:15:22.359Z,102056.00
2022-09-05T02:17:56.672Z,102056.00
2022-09-05T02:20:35.074Z,102054.00
2022-09-05T02:23:35.162Z,102052.00
2022-09-05T02:26:24.956Z,102047.00
2022-09-05T02:29:29.046Z,102052.00
2022-09-05T02:32:03.229Z,102053.00
2022-09-05T02:34:39.235Z,102052.00
2022-09-05T02:37:32.384Z,102050.00
2022-09-05T02:45:06.486Z,102056.00
2022-09-05T02:45:14.494Z,102049.00
2022-09-05T02:46:18.407Z,102047.00
2022-09-05T02:49:20.355Z,102040.00
2022-09-05T02:57:25.188Z,102042.00
2022-09-05T02:57:41.361Z,102041.00
2022-09-05T02:58:06.188Z,102032.00
2022-09-05T03:00:52.289Z,102037.00
2022-09-05T03:03:39.293Z,102018.00
2022-09-05T03:06:34.902Z,102031.00
2022-09-05T03:09:17.219Z,102022.00
2022-09-05T03:12:28.873Z,102022.00
2022-09-05T03:15:24.652Z,102015.00
2022-09-05T03:17:59.525Z,102030.00
2022-09-05T03:21:09.303Z,102019.00
2022-09-05T03:24:04.237Z,102027.00
2022-09-05T03:26:57.755Z,102021.00
2022-09-05T03:29:58.606Z,102020.00
2022-09-05T03:32:49.043Z,102029.00
2022-09-05T03:35:49.901Z,102034.00
2022-09-05T03:38:49.082Z,102030.00
2022-09-05T03:41:25.275Z,102027.00
2022-09-05T03:44:26.060Z,102018.00
2022-09-05T03:47:11.617Z,102027.00
2022-09-05T03:55:35.358Z,102032.00
2022-09-05T03:57:23.098Z,102024.00
2022-09-05T03:57:28.079Z,102037.00
2022-09-05T03:59:44.669Z,102038.00
2022-09-05T04:07:21.551Z,102043.00
2022-09-05T04:08:26.895Z,102041.00
2022-09-05T04:08:42.257Z,102044.00
2022-09-05T04:11:27.835Z,102048.00
2022-09-05T04:14:21.393Z,102039.00
2022-09-05T04:17:19.655Z,102031.00
2022-09-05T04:19:59.715Z,102033.00
2022-09-05T04:22:50.259Z,102027.00
2022-09-05T04:25:29.296Z,102037.00
2022-09-05T04:28:02.047Z,102036.00
2022-09-05T04:30:39.732Z,102036.00
2022-09-05T04:33:18.134Z,102038.00
2022-09-05T04:36:19.855Z,102039.00
2022-09-05T04:39:05.092Z,102042.00
2022-09-05T04:41:39.012Z,102043.00
2022-09-05T04:44:12.982Z,102047.00
2022-09-05T04:46:48.923Z,102047.00
2022-09-05T04:49:27.504Z,102044.00
2022-09-05T04:52:39.566Z,102045.00
2022-09-05T04:55:41.811Z,102045.00
2022-09-05T05:00:36.803Z,102055.00
2022-09-05T05:06:03.644Z,102051.00
2022-09-05T05:06:14.661Z,102064.00
2022-09-05T05:07:17.519Z,102057.00
2022-09-05T05:10:39.187Z,102067.00
2022-09-05T05:18:00.362Z,102075.00
2022-09-05T05:18:15.633Z,102074.00
2022-09-05T05:19:28.669Z,102075.00
2022-09-05T05:21:57.978Z,102071.00
2022-09-05T05:24:36.349Z,102082.00
2022-09-05T05:27:10.168Z,102076.00
2022-09-05T05:29:52.211Z,102086.00
2022-09-05T05:32:45.465Z,102086.00
2022-09-05T05:35:23.474Z,102089.00
2022-09-05T05:37:59.633Z,102092.00
2022-09-05T05:40:31.760Z,102096.00
2022-09-05T05:43:15.194Z,102101.00
2022-09-05T05:45:42.735Z,102107.00
2022-09-05T05:48:28.952Z,102112.00
2022-09-05T05:51:13.443Z,102112.00
2022-09-05T05:53:52.381Z,102104.00
2022-09-05T05:56:22.345Z,102107.00
2022-09-05T05:59:23.962Z,102119.00
2022-09-05T06:02:02.477Z,102119.00
2022-09-05T06:04:46.190Z,102121.00
2022-09-05T06:08:33.892Z,102131.00
2022-09-05T06:14:59.462Z,102140.00
2022-09-05T06:15:00.312Z,102148.00
2022-09-05T06:16:56.431Z,102156.00
2022-09-05T06:20:20.888Z,102151.00
2022-09-05T06:22:43.500Z,102154.00
2022-09-05T06:25:29.179Z,102161.00
2022-09-05T06:28:19.286Z,102164.00
2022-09-05T06:31:30.109Z,102160.00
2022-09-05T06:34:35.516Z,102175.00
2022-09-05T06:37:24.816Z,102170.00
2022-09-05T06:40:17.089Z,102171.00
2022-09-05T06:42:52.698Z,102184.00
2022-09-05T06:45:32.607Z,102176.00
2022-09-05T06:48:36.580Z,102182.00
2022-09-05T06:51:44.827Z,102191.00
2022-09-05T06:54:33.908Z,102204.00
2022-09-05T06:57:10.155Z,102218.00
2022-09-05T06:59:58.907Z,102212.00
2022-09-05T07:02:59.898Z,102219.00
2022-09-05T07:05:45.459Z,102245.00
2022-09-05T07:08:35.660Z,102244.00
2022-09-05T07:11:16.616Z,102242.00
2022-09-05T07:13:49.988Z,102259.00
2022-09-05T07:16:26.525Z,102257.00
2022-09-05T07:19:29.307Z,102235.00
2022-09-05T07:22:48.839Z,102252.00
2022-09-05T07:25:18.935Z,102244.00
2022-09-05T07:28:29.056Z,102270.00
2022-09-05T07:30:46.740Z,102263.00
2022-09-05T07:33:21.359Z,102268.00
2022-09-05T07:35:50.546Z,102261.00
2022-09-05T07:38:52.491Z,102267.00
2022-09-05T07:41:45.248Z,102278.00
2022-09-05T07:44:22.284Z,102269.00
2022-09-05T07:46:56.274Z,102285.00
2022-09-05T07:49:27.266Z,102267.00
2022-09-05T07:56:46.314Z,102266.00
2022-09-05T07:56:51.146Z,102275.00
2022-09-05T07:57:50.850Z,102294.00
2022-09-05T08:00:27.064Z,102301.00
2022-09-05T08:03:07.992Z,102300.00
2022-09-05T08:05:50.462Z,102292.00
2022-09-05T08:08:22.945Z,102307.00
2022-09-05T08:11:24.204Z,102302.00
2022-09-05T08:14:43.392Z,102297.00
2022-09-05T08:16:58.224Z,102304.00
2022-09-05T08:19:40.619Z,102291.00
2022-09-05T08:22:13.773Z,102296.00
2022-09-05T08:24:47.039Z,102298.00
2022-09-05T08:27:17.579Z,102304.00
2022-09-05T08:30:25.783Z,102291.00
2022-09-05T08:33:11.259Z,102300.00
2022-09-05T08:35:53.254Z,102309.00
2022-09-05T08:38:25.537Z,102299.00
2022-09-05T08:40:55.631Z,102302.00
2022-09-05T08:46:44.587Z,102297.00
2022-09-05T08:46:55.157Z,102313.00
2022-09-05T08:49:41.424Z,102300.00
2022-09-05T08:52:26.196Z,102284.00
2022-09-05T08:55:07.516Z,102302.00
2022-09-05T08:57:47.027Z,102304.00
2022-09-05T09:00:20.481Z,102300.00
2022-09-05T09:03:25.761Z,102302.00
2022-09-05T09:06:13.932Z,102304.00
2022-09-05T09:08:55.739Z,102291.00
2022-09-05T09:11:34.326Z,102281.00
2022-09-05T09:14:37.911Z,102295.00
2022-09-05T09:17:42.616Z,102281.00
2022-09-05T09:20:15.062Z,102300.00
2022-09-05T09:23:00.547Z,102280.00
2022-09-05T09:25:33.739Z,102287.00
2022-09-05T09:28:50.012Z,102306.00
2022-09-05T09:31:49.754Z,102285.00
2022-09-05T09:37:50.838Z,102303.00
2022-09-05T09:40:22.412Z,102321.00
2022-09-05T09:43:08.429Z,102309.00
2022-09-05T09:46:10.659Z,102318.00
2022-09-05T09:48:57.346Z,102320.00
2022-09-05T09:52:00.422Z,102299.00
2022-09-05T09:55:17.429Z,102307.00
2022-09-05T09:58:23.618Z,102322.00
2022-09-05T10:01:34.864Z,102318.00
2022-09-05T10:10:32.765Z,102316.00
2022-09-05T10:10:47.498Z,102343.00
2022-09-05T10:11:54.302Z,102318.00
2022-09-05T10:14:56.639Z,102327.00
2022-09-05T10:17:52.581Z,102316.00
2022-09-05T10:20:40.888Z,102336.00
2022-09-05T10:23:25.956Z,102315.00
2022-09-05T10:26:17.221Z,102316.00
2022-09-05T10:29:26.720Z,102337.00
2022-09-05T10:35:00.794Z,102348.00
2022-09-05T10:35:22.244Z,102323.00
2022-09-05T10:38:11.303Z,102335.00
2022-09-05T10:41:20.095Z,102338.00
2022-09-05T10:43:32.400Z,102329.00
2022-09-05T10:46:52.229Z,102305.00
2022-09-05T10:50:03.884Z,102318.00
2022-09-05T10:52:59.931Z,102325.00
2022-09-05T10:56:10.858Z,102327.00
2022-09-05T11:02:19.337Z,102310.00
2022-09-05T11:02:27.669Z,102323.00
2022-09-05T11:05:47.435Z,102315.00
2022-09-05T11:08:42.447Z,102347.00
2022-09-05T11:11:28.393Z,102329.00
2022-09-05T11:14:07.290Z,102335.00
2022-09-05T11:16:57.418Z,102343.00
2022-09-05T11:19:44.617Z,102353.00
2022-09-05T11:22:22.387Z,102333.00
2022-09-05T11:25:01.061Z,102337.00
2022-09-05T11:27:38.235Z,102333.00
2022-09-05T11:30:29.244Z,102325.00
2022-09-05T11:39:47.495Z,102323.00
2022-09-05T11:39:57.096Z,102320.00
2022-09-05T11:40:10.552Z,102334.00
2022-09-05T11:42:49.098Z,102319.00
2022-09-05T11:45:58.324Z,102327.00
2022-09-05T11:48:53.327Z,102307.00
2022-09-05T11:51:35.700Z,102321.00
2022-09-05T11:54:17.386Z,102312.00
2022-09-05T11:56:50.215Z,102310.00
2022-09-05T11:59:33.525Z,102312.00
2022-09-05T12:02:26.354Z,102290.00
2022-09-05T12:05:48.388Z,102288.00
2022-09-05T12:08:28.918Z,102292.00
2022-09-05T12:11:33.427Z,102292.00
2022-09-05T12:14:20.807Z,102287.00
2022-09-05T12:16:50.712Z,102292.00
2022-09-05T12:19:35.524Z,102290.00
2022-09-05T12:22:27.810Z,102283.00
2022-09-05T12:25:45.864Z,102268.00
2022-09-05T12:28:28.575Z,102276.00
2022-09-05T12:31:07.096Z,102279.00
2022-09-05T12:36:06.248Z,102290.00
2022-09-05T12:40:54.651Z,102284.00
2022-09-05T12:41:14.918Z,102271.00
2022-09-05T12:44:20.934Z,102267.00
2022-09-05T12:46:23.608Z,102247.00
2022-09-05T12:49:06.764Z,102252.00
2022-09-05T12:51:45.826Z,102255.00
2022-09-05T12:54:33.505Z,102263.00
2022-09-05T13:01:12.694Z,102254.00
2022-09-05T13:03:03.140Z,102255.00
2022-09-05T13:03:28.048Z,102260.00
2022-09-05T13:06:05.370Z,102261.00
2022-09-05T13:08:52.825Z,102253.00
2022-09-05T13:14:48.093Z,102254.00
2022-09-05T13:14:56.695Z,102249.00
2022-09-05T13:17:14.021Z,102265.00
2022-09-05T13:19:51.449Z,102272.00
2022-09-05T13:22:22.547Z,102252.00
2022-09-05T13:25:08.834Z,102223.00
2022-09-05T13:27:42.347Z,102265.00
2022-09-05T13:34:12.699Z,102251.00
2022-09-05T13:37:58.254Z,102259.00
2022-09-05T13:37:59.738Z,102259.00
2022-09-05T13:39:16.421Z,102245.00
2022-09-05T13:41:48.858Z,102223.00
2022-09-05T13:44:25.211Z,102250.00
2022-09-05T13:47:29.407Z,102223.00
2022-09-05T13:50:06.515Z,102223.00
2022-09-05T13:52:44.799Z,102209.00
2022-09-05T13:55:17.679Z,102209.00
2022-09-05T13:57:56.439Z,102211.00
2022-09-05T14:00:43.455Z,102207.00
2022-09-05T14:04:01.839Z,102207.00
2022-09-05T14:06:51.595Z,102184.00
2022-09-05T14:09:48.119Z,102175.00
2022-09-05T14:12:42.228Z,102183.00
2022-09-05T14:15:38.101Z,102168.00
2022-09-05T14:18:21.632Z,102167.00
2022-09-05T14:21:27.771Z,102185.00
2022-09-05T14:24:04.819Z,102159.00
2022-09-05T14:26:35.654Z,102176.00
2022-09-05T14:29:05.964Z,102174.00
2022-09-05T14:37:26.550Z,102168.00
2022-09-05T14:37:53.227Z,102171.00
2022-09-05T14:38:32.951Z,102169.00
2022-09-05T14:41:38.217Z,102170.00
2022-09-05T14:44:37.908Z,102163.00
2022-09-05T14:47:37.501Z,102170.00
2022-09-05T14:50:30.751Z,102151.00
2022-09-05T14:57:23.814Z,102160.00
2022-09-05T15:02:41.211Z,102145.00
2022-09-05T15:02:52.712Z,102149.00
2022-09-05T15:05:11.780Z,102142.00
2022-09-05T15:07:46.543Z,102143.00
2022-09-05T15:12:14.754Z,102144.00
2022-09-05T15:13:11.829Z,102130.00
2022-09-05T15:15:43.407Z,102128.00
2022-09-05T15:18:24.735Z,102133.00
2022-09-05T15:20:54.327Z,102138.00
2022-09-05T15:23:26.074Z,102136.00
2022-09-05T15:26:31.668Z,102125.00
2022-09-05T15:29:14.603Z,102119.00
2022-09-05T15:31:42.199Z,102117.00
2022-09-05T15:34:26.743Z,102126.00
2022-09-05T15:36:55.082Z,102128.00
2022-09-05T15:39:36.069Z,102121.00
2022-09-05T15:42:16.205Z,102122.00
2022-09-05T15:45:08.535Z,102125.00
2022-09-05T15:47:35.391Z,102120.00
2022-09-05T15:50:07.839Z,102122.00
2022-09-05T15:52:55.419Z,102113.00
2022-09-05T15:55:26.734Z,102119.00
2022-09-05T15:57:57.789Z,102113.00
2022-09-05T16:00:33.898Z,102102.00
2022-09-05T16:03:40.968Z,102098.00
2022-09-05T16:10:30.138Z,102104.00
2022-09-05T16:10:45.942Z,102110.00
2022-09-05T16:17:12.543Z,102106.00
2022-09-05T16:23:25.285Z,102115.00
2022-09-05T16:23:25.287Z,102093.00
2022-09-05T16:24:06.887Z,102104.00
2022-09-05T16:26:40.653Z,102097.00
2022-09-05T16:29:23.918Z,102092.00
2022-09-05T16:31:59.637Z,102091.00
2022-09-05T16:34:34.099Z,102080.00
2022-09-05T16:37:26.576Z,102081.00
2022-09-05T16:40:04.391Z,102086.00
2022-09-05T16:42:55.234Z,102074.00
2022-09-05T16:46:06.695Z,102071.00
2022-09-05T16:48:55.293Z,102062.00
2022-09-05T16:51:38.809Z,102066.00
2022-09-05T16:54:33.613Z,102059.00
2022-09-05T16:57:05.208Z,102055.00
2022-09-05T16:59:34.715Z,102059.00
2022-09-05T17:02:09.103Z,102055.00
2022-09-05T17:05:03.276Z,102058.00
2022-09-05T17:07:51.179Z,102057.00
2022-09-05T17:10:26.132Z,102053.00
2022-09-05T17:12:56.231Z,102045.00
2022-09-05T17:15:32.729Z,102041.00
2022-09-05T17:18:19.822Z,102047.00
2022-09-05T17:20:54.333Z,102033.00
2022-09-05T17:29:23.321Z,102039.00
2022-09-05T17:29:34.488Z,102055.00
2022-09-05T17:32:49.283Z,102044.00
2022-09-05T17:35:31.484Z,102037.00
2022-09-05T17:38:32.080Z,102023.00
2022-09-05T17:40:59.448Z,102027.00
2022-09-05T17:43:38.586Z,102015.00
2022-09-05T17:46:23.527Z,102025.00
2022-09-05T17:48:58.610Z,102030.00
2022-09-05T17:51:50.936Z,102021.00
2022-09-05T17:54:27.589Z,102029.00
2022-09-05T17:56:54.516Z,102030.00
2022-09-05T17:59:23.060Z,102034.00
2022-09-05T18:02:02.188Z,102033.00
2022-09-05T18:04:46.972Z,102037.00
2022-09-05T18:07:23.118Z,102039.00
2022-09-05T18:10:11.844Z,102040.00
2022-09-05T18:13:12.495Z,102044.00
2022-09-05T18:15:47.798Z,102037.00
2022-09-05T18:21:24.273Z,102040.00
2022-09-05T18:26:56.135Z,102056.00
2022-09-05T18:29:58.668Z,102054.00
2022-09-05T18:32:38.923Z,102042.00
2022-09-05T18:35:36.503Z,102046.00
2022-09-05T18:38:05.302Z,102042.00
2022-09-05T18:40:52.063Z,102047.00
2022-09-05T18:43:57.204Z,102044.00
2022-09-05T18:46:34.689Z,102035.00
2022-09-05T18:50:25.517Z,102055.00
2022-09-05T18:52:07.473Z,102037.00
2022-09-05T18:54:35.759Z,102038.00
2022-09-05T18:57:19.933Z,102041.00
2022-09-05T19:00:10.362Z,102043.00
2022-09-05T19:02:58.922Z,102041.00
2022-09-05T19:05:38.722Z,102054.00
2022-09-05T19:08:28.720Z,102049.00
2022-09-05T19:11:01.312Z,102062.00
2022-09-05T19:13:48.665Z,102060.00
2022-09-05T19:16:43.557Z,102055.00
2022-09-05T19:19:16.948Z,102052.00
2022-09-05T19:22:37.328Z,102046.00
2022-09-05T19:24:47.146Z,102057.00
2022-09-05T19:30:08.654Z,102051.00
2022-09-05T19:36:48.934Z,102056.00
2022-09-05T19:36:51.437Z,102059.00
2022-09-05T19:37:10.872Z,102067.00
2022-09-05T19:39:19.685Z,102062.00
2022-09-05T19:47:26.645Z,102058.00
2022-09-05T19:47:36.820Z,102055.00
2022-09-05T19:50:29.157Z,102063.00
2022-09-05T19:53:12.580Z,102062.00
2022-09-05T19:55:40.200Z,102054.00
2022-09-05T19:58:20.267Z,102056.00
2022-09-05T20:01:00.426Z,102060.00
2022-09-05T20:03:28.970Z,102055.00
2022-09-05T20:06:24.649Z,102052.00
2022-09-05T20:09:09.323Z,102045.00
2022-09-05T20:11:45.938Z,102042.00
2022-09-05T20:14:36.745Z,102039.00
2022-09-05T20:20:11.849Z,102038.00
2022-09-05T20:22:48.558Z,102024.00
2022-09-05T20:25:39.920Z,102022.00
2022-09-05T20:28:13.649Z,102025.00
2022-09-05T20:30:44.957Z,102023.00
2022-09-05T20:33:38.855Z,102013.00
2022-09-05T20:42:51.286Z,102014.00
2022-09-05T20:43:27.220Z,102006.00
2022-09-05T20:43:30.598Z,101999.00
2022-09-05T20:44:48.349Z,102015.00
2022-09-05T20:51:27.930Z,102007.00
2022-09-05T20:54:17.370Z,102010.00
2022-09-05T20:54:28.127Z,101999.00
2022-09-05T20:56:07.643Z,102007.00
2022-09-05T20:58:39.819Z,102002.00
2022-09-05T21:01:24.513Z,102001.00
2022-09-05T21:03:59.431Z,102006.00
2022-09-05T21:06:36.581Z,101999.00
2022-09-05T21:09:14.177Z,102003.00
2022-09-05T21:11:47.966Z,101996.00
2022-09-05T21:14:24.383Z,102000.00
2022-09-05T21:17:04.934Z,101992.00
2022-09-05T21:19:53.630Z,101995.00
2022-09-05T21:22:21.189Z,101992.00
2022-09-05T21:24:48.915Z,102000.00
2022-09-05T21:27:24.096Z,101986.00
2022-09-05T21:29:58.816Z,101978.00
2022-09-05T21:32:38.206Z,101984.00
2022-09-05T21:35:34.759Z,101977.00
2022-09-05T21:37:58.850Z,101981.00
2022-09-05T21:40:25.724Z,101992.00
2022-09-05T21:45:33.801Z,101982.00
2022-09-05T21:47:39.906Z,101994.00
2022-09-05T21:48:27.629Z,101988.00
2022-09-05T21:50:57.468Z,101979.00
2022-09-05T21:59:13.601Z,101984.00
2022-09-05T21:59:32.701Z,101986.00
2022-09-05T21:59:36.629Z,101983.00
2022-09-05T22:02:07.177Z,101982.00
2022-09-05T22:04:37.212Z,101984.00
2022-09-05T22:07:14.394Z,101976.00
2022-09-05T22:09:41.366Z,101969.00
2022-09-05T22:12:28.271Z,101982.00
2022-09-05T22:14:55.868Z,101968.00
2022-09-05T22:17:25.412Z,101974.00
2022-09-05T22:19:53.501Z,101958.00
2022-09-05T22:22:20.859Z,101966.00
2022-09-05T22:24:56.608Z,101966.00
2022-09-05T22:27:25.890Z,101964.00
2022-09-05T22:29:52.956Z,101969.00
2022-09-05T22:32:28.554Z,101952.00
2022-09-05T22:35:27.074Z,101954.00
2022-09-05T22:37:59.493Z,101957.00
2022-09-05T22:40:28.908Z,101957.00
2022-09-05T22:42:57.263Z,101952.00
2022-09-05T22:45:24.736Z,101952.00
2022-09-05T22:47:51.799Z,101946.00
2022-09-05T22:50:18.663Z,101936.00
2022-09-05T22:52:45.439Z,101946.00
2022-09-05T22:55:12.438Z,101953.00
2022-09-05T22:57:40.024Z,101950.00
2022-09-05T23:00:08.102Z,101943.00
2022-09-05T23:02:37.726Z,101951.00
2022-09-05T23:05:05.833Z,101951.00
2022-09-05T23:07:32.946Z,101951.00
2022-09-05T23:09:59.793Z,101934.00
2022-09-05T23:12:26.633Z,101941.00
2022-09-05T23:14:53.783Z,101948.00
2022-09-05T23:17:20.582Z,101943.00
2022-09-05T23:19:47.378Z,101941.00
2022-09-05T23:22:14.195Z,101948.00
2022-09-05T23:24:41.048Z,101945.00
2022-09-05T23:27:07.884Z,101942.00
2022-09-05T23:29:35.078Z,101940.00
2022-09-05T23:32:02.045Z,101931.00
2022-09-05T23:34:28.891Z,101930.00
2022-09-05T23:36:55.678Z,101931.00
2022-09-05T23:39:22.488Z,101934.00
2022-09-05T23:41:49.335Z,101930.00
2022-09-05T23:44:16.117Z,101922.00
2022-09-05T23:46:42.972Z,101915.00
2022-09-05T23:49:09.962Z,101916.00
2022-09-05T23:51:36.724Z,101918.00
2022-09-05T23:54:03.572Z,101925.00
2022-09-05T23:56:30.819Z,101917.00
2022-09-05T23:58:57.609Z,101909.00
